This is the latest recevied weather packets stored in our database for station/object N1KM-15. If no packets are shown the sender has not sent any weather packets the latest 10 day(s).
| Time | Temp. | Humidity | Pressure | Rain* | Wind** | Luminosity | Snow |
|---|---|---|---|---|---|---|---|
| 1778008500 | 15° C | 75% | 1008.2 hPa | 0 mm | - | - | - |
| 1778007600 | 15° C | 76% | 1008.3 hPa | 0 mm | - | - | - |
| 1778006700 | 15° C | 76% | 1008.2 hPa | 0 mm | - | - | - |
| 1778005800 | 15° C | 76% | 1008.5 hPa | 0 mm | - | - | - |
| 1778004900 | 15.56° C | 75% | 1008.4 hPa | 0 mm | - | - | - |
| 1778004000 | 15.56° C | 75% | 1008.4 hPa | 0 mm | - | - | - |
| 1778003100 | 15.56° C | 74% | 1008.5 hPa | 0 mm | - | - | - |
| 1778002200 | 16.11° C | 73% | 1008.5 hPa | 0 mm | - | - | - |
| 1778001300 | 16.11° C | 73% | 1008.6 hPa | 0 mm | - | - | - |
| 1778000400 | 16.11° C | 74% | 1008.7 hPa | 0 mm | - | - | - |
| 1777999500 | 16.11° C | 73% | 1008.8 hPa | 0 mm | - | - | - |
| 1777998600 | 15.56° C | 74% | 1008.8 hPa | 0 mm | - | - | - |
| 1777997700 | 15° C | 77% | 1009.2 hPa | 0 mm | - | - | - |
| 1777996800 | 14.44° C | 78% | 1009.7 hPa | 0 mm | - | - | - |
| 1777995900 | 15° C | 77% | 1009.4 hPa | 0 mm | - | - | - |
| 1777995000 | 16.11° C | 74% | 1009.2 hPa | 0 mm | - | - | - |
| 1777994100 | 16.67° C | 72% | 1009 hPa | 0 mm | - | - | - |
| 1777993200 | 16.11° C | 73% | 1008.9 hPa | 0 mm | - | - | - |
| 1777992300 | 16.11° C | 73% | 1009.3 hPa | 0 mm | - | - | - |
| 1777991400 | 16.11° C | 74% | 1009 hPa | 0 mm | - | - | - |
| 1777990500 | 15.56° C | 74% | 1009 hPa | 0 mm | - | - | - |
| 1777989600 | 15° C | 77% | 1009.1 hPa | 0 mm | - | - | - |
| 1777988700 | 15° C | 77% | 1009.2 hPa | 0 mm | - | - | - |
| 1777987800 | 14.44° C | 78% | 1009.5 hPa | 0 mm | - | - | - |
| 1777986900 | 14.44° C | 77% | 1009.3 hPa | 0 mm | - | - | - |
* Rain since midnight (hover to see other rain measurements)
** Current wind speed in m/s (hover to see current wind gust speed)